QAF9 EDDH-EGLL
Flight info
| Callsign | QAF9 |
|---|---|
| Flight time | 1h 7m |
| Altitude | 40000 |
| Route | WSN5G WSN N125 ITMIZ DCT PARYD DCT ABNED L980 LOGAN |
| Aircraft | A343/H-SDE2E3FGHIJ4J5M1RWXY/LB1D1 |
Departure
| Time | 2026-04-21 14:26 |
|---|---|
| Airport | Hamburg Helmut Schmidt Airport (EDDH) |
Arrival
| Time | 2026-04-21 15:33 |
|---|---|
| Airport | London Heathrow Airport (EGLL) |
| Time | Latitude | Longitude | Altitude | Speed | Heading |
|---|---|---|---|---|---|
| 2026-04-21 13:47 | 53.62907 | 9.99269 | 51 ft | 0 kts | 241° |
| 2026-04-21 14:17 | 53.62916 | 9.99294 | 47 ft | 4 kts | 234° |
| 2026-04-21 14:17 | 53.62933 | 9.99328 | 46 ft | 4 kts | 216° |
| 2026-04-21 14:18 | 53.62956 | 9.99347 | 45 ft | 4 kts | 183° |
| 2026-04-21 14:18 | 53.62974 | 9.99343 | 46 ft | 1 kts | 153° |
| 2026-04-21 14:18 | 53.62976 | 9.99341 | 46 ft | 0 kts | 153° |
| 2026-04-21 14:22 | 53.62952 | 9.99361 | 44 ft | 8 kts | 153° |
| 2026-04-21 14:23 | 53.62891 | 9.99414 | 50 ft | 12 kts | 152° |
| 2026-04-21 14:23 | 53.62810 | 9.99485 | 51 ft | 15 kts | 153° |
| 2026-04-21 14:23 | 53.62711 | 9.99571 | 48 ft | 18 kts | 153° |
| 2026-04-21 14:23 | 53.62643 | 9.99646 | 51 ft | 11 kts | 129° |
| 2026-04-21 14:24 | 53.62635 | 9.99733 | 51 ft | 7 kts | 86° |
| 2026-04-21 14:24 | 53.62655 | 9.99822 | 47 ft | 10 kts | 66° |
| 2026-04-21 14:24 | 53.62693 | 9.99883 | 50 ft | 3 kts | 353° |
| 2026-04-21 14:24 | 53.62730 | 9.99868 | 50 ft | 6 kts | 339° |
| 2026-04-21 14:25 | 53.62776 | 9.99824 | 49 ft | 9 kts | 330° |
| 2026-04-21 14:25 | 53.62833 | 9.99771 | 49 ft | 0 kts | 331° |
| 2026-04-21 14:25 | 53.62847 | 9.99759 | 49 ft | 12 kts | 331° |
| 2026-04-21 14:25 | 53.63167 | 9.99488 | 51 ft | 90 kts | 332° |
| 2026-04-21 14:26 | 53.63914 | 9.98839 | 52 ft | 151 kts | 333° |
| 2026-04-21 14:26 | 53.64913 | 9.97937 | 655 ft | 163 kts | 336° |
| 2026-04-21 14:26 | 53.65927 | 9.97036 | 1558 ft | 166 kts | 338° |
| 2026-04-21 14:26 | 53.67037 | 9.96116 | 2261 ft | 191 kts | 339° |
| 2026-04-21 14:27 | 53.68278 | 9.95093 | 3198 ft | 204 kts | 338° |
| 2026-04-21 14:27 | 53.69577 | 9.93985 | 4383 ft | 214 kts | 335° |
| 2026-04-21 14:27 | 53.70745 | 9.92394 | 5506 ft | 227 kts | 312° |
| 2026-04-21 14:27 | 53.71367 | 9.89884 | 6609 ft | 245 kts | 279° |
| 2026-04-21 14:28 | 53.71145 | 9.86891 | 7342 ft | 271 kts | 252° |
| 2026-04-21 14:28 | 53.70500 | 9.83797 | 8335 ft | 283 kts | 250° |
| 2026-04-21 14:28 | 53.69822 | 9.80652 | 9406 ft | 292 kts | 250° |
| 2026-04-21 14:28 | 53.69137 | 9.77375 | 10481 ft | 300 kts | 251° |
| 2026-04-21 14:29 | 53.68491 | 9.74206 | 11065 ft | 320 kts | 251° |
| 2026-04-21 14:29 | 53.67786 | 9.70676 | 11473 ft | 345 kts | 251° |
| 2026-04-21 14:29 | 53.67008 | 9.66762 | 11918 ft | 367 kts | 251° |
| 2026-04-21 14:29 | 53.66203 | 9.62698 | 12644 ft | 378 kts | 251° |
| 2026-04-21 14:30 | 53.65253 | 9.58506 | 13472 ft | 387 kts | 244° |
| 2026-04-21 14:30 | 53.63881 | 9.54657 | 14349 ft | 394 kts | 234° |
| 2026-04-21 14:30 | 53.62302 | 9.50943 | 15195 ft | 399 kts | 232° |
| 2026-04-21 14:30 | 53.60659 | 9.47153 | 16072 ft | 404 kts | 232° |
| 2026-04-21 14:31 | 53.58990 | 9.43299 | 16971 ft | 408 kts | 232° |
| 2026-04-21 14:31 | 53.57309 | 9.39408 | 17838 ft | 413 kts | 232° |
| 2026-04-21 14:31 | 53.55609 | 9.35473 | 18677 ft | 419 kts | 232° |
| 2026-04-21 14:31 | 53.53884 | 9.31481 | 19434 ft | 423 kts | 232° |
| 2026-04-21 14:32 | 53.52148 | 9.27461 | 20173 ft | 428 kts | 232° |
| 2026-04-21 14:32 | 53.50382 | 9.23384 | 20870 ft | 433 kts | 232° |
| 2026-04-21 14:32 | 53.48591 | 9.19257 | 21580 ft | 438 kts | 232° |
| 2026-04-21 14:32 | 53.46787 | 9.15104 | 22266 ft | 443 kts | 232° |
| 2026-04-21 14:33 | 53.44957 | 9.10899 | 22943 ft | 448 kts | 231° |
| 2026-04-21 14:33 | 53.43110 | 9.06660 | 23598 ft | 452 kts | 231° |
| 2026-04-21 14:33 | 53.41258 | 9.02418 | 24179 ft | 457 kts | 231° |
| 2026-04-21 14:33 | 53.39373 | 8.98107 | 24719 ft | 461 kts | 231° |
| 2026-04-21 14:34 | 53.37460 | 8.93738 | 25240 ft | 465 kts | 231° |
| 2026-04-21 14:34 | 53.35590 | 8.89275 | 25744 ft | 471 kts | 235° |
| 2026-04-21 14:34 | 53.34044 | 8.84378 | 26254 ft | 477 kts | 244° |
| 2026-04-21 14:34 | 53.32771 | 8.79227 | 26746 ft | 482 kts | 247° |
| 2026-04-21 14:35 | 53.31601 | 8.74021 | 27212 ft | 486 kts | 248° |
| 2026-04-21 14:35 | 53.30454 | 8.68696 | 27755 ft | 488 kts | 249° |
| 2026-04-21 14:35 | 53.29308 | 8.63328 | 28229 ft | 491 kts | 249° |
| 2026-04-21 14:35 | 53.28155 | 8.57923 | 28664 ft | 495 kts | 248° |
| 2026-04-21 14:36 | 53.26988 | 8.52492 | 29082 ft | 499 kts | 248° |
| 2026-04-21 14:36 | 53.25812 | 8.47026 | 29496 ft | 502 kts | 249° |
| 2026-04-21 14:36 | 53.24710 | 8.41452 | 29919 ft | 506 kts | 250° |
| 2026-04-21 14:36 | 53.23681 | 8.35897 | 30338 ft | 509 kts | 251° |
| 2026-04-21 14:37 | 53.22646 | 8.30202 | 30678 ft | 512 kts | 251° |
| 2026-04-21 14:37 | 53.21604 | 8.24492 | 31044 ft | 514 kts | 251° |
| 2026-04-21 14:37 | 53.20549 | 8.18797 | 31441 ft | 515 kts | 251° |
| 2026-04-21 14:37 | 53.19479 | 8.13109 | 32075 ft | 510 kts | 251° |
| 2026-04-21 14:38 | 53.18414 | 8.07471 | 32694 ft | 506 kts | 251° |
| 2026-04-21 14:38 | 53.17360 | 8.01880 | 33186 ft | 505 kts | 251° |
| 2026-04-21 14:38 | 53.16317 | 7.96360 | 33669 ft | 503 kts | 251° |
| 2026-04-21 14:38 | 53.15267 | 7.90812 | 34178 ft | 501 kts | 251° |
| 2026-04-21 14:39 | 53.14216 | 7.85278 | 34607 ft | 500 kts | 252° |
| 2026-04-21 14:39 | 53.13168 | 7.79780 | 34999 ft | 498 kts | 252° |
| 2026-04-21 14:39 | 53.12115 | 7.74268 | 35392 ft | 497 kts | 252° |
| 2026-04-21 14:39 | 53.11065 | 7.68794 | 35760 ft | 496 kts | 252° |
| 2026-04-21 14:40 | 53.10008 | 7.63317 | 36118 ft | 495 kts | 252° |
| 2026-04-21 14:40 | 53.08877 | 7.57905 | 36494 ft | 494 kts | 250° |
| 2026-04-21 14:40 | 53.07697 | 7.52628 | 36827 ft | 494 kts | 249° |
| 2026-04-21 14:40 | 53.06473 | 7.47290 | 37157 ft | 494 kts | 249° |
| 2026-04-21 14:41 | 53.05244 | 7.41942 | 37497 ft | 493 kts | 249° |
| 2026-04-21 14:41 | 53.04029 | 7.36621 | 37835 ft | 493 kts | 250° |
| 2026-04-21 14:41 | 53.02765 | 7.31324 | 38178 ft | 492 kts | 248° |
| 2026-04-21 14:41 | 53.01410 | 7.26099 | 38578 ft | 490 kts | 247° |
| 2026-04-21 14:42 | 53.00020 | 7.20942 | 38940 ft | 489 kts | 246° |
| 2026-04-21 14:42 | 52.98620 | 7.15773 | 39193 ft | 489 kts | 247° |
| 2026-04-21 14:42 | 52.97238 | 7.10626 | 39419 ft | 489 kts | 247° |
| 2026-04-21 14:42 | 52.95859 | 7.05442 | 39597 ft | 490 kts | 247° |
| 2026-04-21 14:43 | 52.94493 | 7.00279 | 39883 ft | 489 kts | 248° |
| 2026-04-21 14:43 | 52.93131 | 6.95113 | 40140 ft | 488 kts | 248° |
| 2026-04-21 14:43 | 52.91770 | 6.89954 | 40288 ft | 490 kts | 248° |
| 2026-04-21 14:44 | 52.89033 | 6.79607 | 40340 ft | 491 kts | 248° |
| 2026-04-21 14:44 | 52.86288 | 6.69288 | 40335 ft | 489 kts | 248° |
| 2026-04-21 14:45 | 52.83533 | 6.58981 | 40335 ft | 489 kts | 247° |
| 2026-04-21 14:45 | 52.80773 | 6.48707 | 40330 ft | 488 kts | 248° |
| 2026-04-21 14:46 | 52.78035 | 6.38555 | 40328 ft | 485 kts | 248° |
| 2026-04-21 14:46 | 52.75278 | 6.28378 | 40328 ft | 484 kts | 247° |
| 2026-04-21 14:47 | 52.72516 | 6.18226 | 40333 ft | 485 kts | 248° |
| 2026-04-21 14:47 | 52.69742 | 6.08076 | 40330 ft | 485 kts | 248° |
| 2026-04-21 14:48 | 52.66963 | 5.97957 | 40332 ft | 484 kts | 248° |
| 2026-04-21 14:48 | 52.64191 | 5.87905 | 40336 ft | 484 kts | 247° |
| 2026-04-21 14:49 | 52.61395 | 5.77811 | 40335 ft | 484 kts | 248° |
| 2026-04-21 14:49 | 52.58586 | 5.67713 | 40336 ft | 484 kts | 247° |
| 2026-04-21 14:50 | 52.56248 | 5.59344 | 40322 ft | 484 kts | 247° |
| 2026-04-21 14:50 | 52.52956 | 5.47604 | 40312 ft | 484 kts | 247° |
| 2026-04-21 14:51 | 52.50129 | 5.37572 | 40318 ft | 484 kts | 248° |
| 2026-04-21 14:51 | 52.47309 | 5.27604 | 40321 ft | 484 kts | 247° |
| 2026-04-21 14:52 | 52.44463 | 5.17591 | 40322 ft | 485 kts | 246° |
| 2026-04-21 14:52 | 52.41605 | 5.07577 | 40320 ft | 484 kts | 247° |
| 2026-04-21 14:53 | 52.38750 | 4.97621 | 40319 ft | 483 kts | 247° |
| 2026-04-21 14:53 | 52.35886 | 4.87670 | 40317 ft | 482 kts | 246° |
| 2026-04-21 14:54 | 52.33029 | 4.77784 | 40323 ft | 481 kts | 246° |
| 2026-04-21 14:54 | 52.30160 | 4.67897 | 40308 ft | 480 kts | 246° |
| 2026-04-21 14:55 | 52.27284 | 4.58030 | 40309 ft | 481 kts | 246° |
| 2026-04-21 14:55 | 52.24400 | 4.48173 | 40309 ft | 481 kts | 246° |
| 2026-04-21 14:56 | 52.21509 | 4.38337 | 40307 ft | 481 kts | 246° |
| 2026-04-21 14:56 | 52.18610 | 4.28513 | 40308 ft | 480 kts | 246° |
| 2026-04-21 14:57 | 52.15722 | 4.18768 | 40308 ft | 480 kts | 246° |
| 2026-04-21 14:57 | 52.12809 | 4.08977 | 40317 ft | 480 kts | 246° |
| 2026-04-21 14:58 | 52.09892 | 3.99212 | 40313 ft | 480 kts | 246° |
| 2026-04-21 14:58 | 52.06961 | 3.89441 | 40308 ft | 480 kts | 246° |
| 2026-04-21 14:59 | 52.04023 | 3.79685 | 40317 ft | 479 kts | 246° |
| 2026-04-21 14:59 | 52.01100 | 3.70020 | 40312 ft | 479 kts | 246° |
| 2026-04-21 15:00 | 51.98152 | 3.60310 | 40310 ft | 479 kts | 246° |
| 2026-04-21 15:00 | 51.95200 | 3.50626 | 40325 ft | 478 kts | 246° |
| 2026-04-21 15:01 | 51.92749 | 3.42615 | 40317 ft | 478 kts | 246° |
| 2026-04-21 15:01 | 51.89782 | 3.32954 | 40314 ft | 477 kts | 246° |
| 2026-04-21 15:02 | 51.86371 | 3.21751 | 40323 ft | 474 kts | 249° |
| 2026-04-21 15:02 | 51.84789 | 3.13349 | 40317 ft | 468 kts | 263° |
| 2026-04-21 15:03 | 51.83926 | 3.02881 | 40319 ft | 468 kts | 266° |
| 2026-04-21 15:03 | 51.83264 | 2.92423 | 40319 ft | 468 kts | 266° |
| 2026-04-21 15:04 | 51.82614 | 2.82053 | 40102 ft | 464 kts | 266° |
| 2026-04-21 15:04 | 51.82275 | 2.76861 | 39578 ft | 463 kts | 266° |
| 2026-04-21 15:04 | 51.81930 | 2.71686 | 39103 ft | 461 kts | 266° |
| 2026-04-21 15:04 | 51.81581 | 2.66534 | 38589 ft | 458 kts | 266° |
| 2026-04-21 15:05 | 51.81235 | 2.61437 | 38153 ft | 454 kts | 266° |
| 2026-04-21 15:05 | 51.80534 | 2.51396 | 37306 ft | 446 kts | 266° |
| 2026-04-21 15:05 | 51.80184 | 2.46435 | 36881 ft | 442 kts | 266° |
| 2026-04-21 15:06 | 51.79834 | 2.41515 | 36443 ft | 438 kts | 266° |
| 2026-04-21 15:06 | 51.79492 | 2.36700 | 36026 ft | 435 kts | 266° |
| 2026-04-21 15:06 | 51.79146 | 2.31869 | 35606 ft | 431 kts | 266° |
| 2026-04-21 15:06 | 51.78802 | 2.27072 | 35143 ft | 429 kts | 267° |
| 2026-04-21 15:07 | 51.78457 | 2.22281 | 34545 ft | 429 kts | 267° |
| 2026-04-21 15:07 | 51.78145 | 2.17484 | 33796 ft | 430 kts | 268° |
| 2026-04-21 15:07 | 51.77872 | 2.12644 | 32917 ft | 434 kts | 269° |
| 2026-04-21 15:07 | 51.77597 | 2.07784 | 32053 ft | 437 kts | 269° |
| 2026-04-21 15:08 | 51.77314 | 2.02878 | 31154 ft | 440 kts | 269° |
| 2026-04-21 15:08 | 51.77023 | 1.97945 | 30177 ft | 443 kts | 269° |
| 2026-04-21 15:08 | 51.76727 | 1.93007 | 29463 ft | 437 kts | 269° |
| 2026-04-21 15:08 | 51.76431 | 1.88164 | 28876 ft | 429 kts | 269° |
| 2026-04-21 15:09 | 51.76143 | 1.83451 | 28263 ft | 423 kts | 268° |
| 2026-04-21 15:09 | 51.75855 | 1.78762 | 27658 ft | 418 kts | 268° |
| 2026-04-21 15:09 | 51.75568 | 1.74113 | 27038 ft | 413 kts | 268° |
| 2026-04-21 15:09 | 51.75282 | 1.69517 | 26418 ft | 409 kts | 268° |
| 2026-04-21 15:10 | 51.74998 | 1.64966 | 25801 ft | 406 kts | 267° |
| 2026-04-21 15:10 | 51.74713 | 1.60432 | 25187 ft | 404 kts | 267° |
| 2026-04-21 15:10 | 51.74430 | 1.55887 | 24622 ft | 416 kts | 266° |
| 2026-04-21 15:10 | 51.74126 | 1.51161 | 24131 ft | 425 kts | 266° |
| 2026-04-21 15:11 | 51.73820 | 1.46396 | 23313 ft | 427 kts | 266° |
| 2026-04-21 15:11 | 51.73517 | 1.41648 | 22594 ft | 422 kts | 266° |
| 2026-04-21 15:11 | 51.73213 | 1.37039 | 21975 ft | 416 kts | 265° |
| 2026-04-21 15:11 | 51.72907 | 1.32422 | 21356 ft | 412 kts | 265° |
| 2026-04-21 15:12 | 51.72602 | 1.27813 | 20736 ft | 412 kts | 266° |
| 2026-04-21 15:12 | 51.72300 | 1.23220 | 20121 ft | 411 kts | 265° |
| 2026-04-21 15:12 | 51.71995 | 1.18633 | 19500 ft | 410 kts | 265° |
| 2026-04-21 15:12 | 51.71689 | 1.14076 | 18882 ft | 408 kts | 264° |
| 2026-04-21 15:13 | 51.71381 | 1.09533 | 18220 ft | 408 kts | 265° |
| 2026-04-21 15:13 | 51.71073 | 1.04989 | 17595 ft | 407 kts | 265° |
| 2026-04-21 15:13 | 51.70763 | 1.00449 | 16982 ft | 405 kts | 264° |
| 2026-04-21 15:13 | 51.70454 | 0.95953 | 16359 ft | 401 kts | 264° |
| 2026-04-21 15:14 | 51.70154 | 0.91491 | 15878 ft | 400 kts | 264° |
| 2026-04-21 15:14 | 51.69844 | 0.87021 | 15389 ft | 403 kts | 264° |
| 2026-04-21 15:14 | 51.69532 | 0.82610 | 14898 ft | 399 kts | 264° |
| 2026-04-21 15:14 | 51.69218 | 0.78190 | 14411 ft | 395 kts | 263° |
| 2026-04-21 15:15 | 51.68908 | 0.73799 | 13890 ft | 393 kts | 263° |
| 2026-04-21 15:15 | 51.68598 | 0.69432 | 13387 ft | 392 kts | 263° |
| 2026-04-21 15:15 | 51.68289 | 0.65064 | 12893 ft | 390 kts | 263° |
| 2026-04-21 15:15 | 51.67981 | 0.60781 | 12605 ft | 378 kts | 263° |
| 2026-04-21 15:16 | 51.67683 | 0.56666 | 12385 ft | 361 kts | 263° |
| 2026-04-21 15:16 | 51.67402 | 0.52809 | 12045 ft | 337 kts | 263° |
| 2026-04-21 15:16 | 51.67133 | 0.49122 | 11477 ft | 326 kts | 263° |
| 2026-04-21 15:16 | 51.66872 | 0.45540 | 10887 ft | 316 kts | 263° |
| 2026-04-21 15:17 | 51.66618 | 0.42083 | 10421 ft | 306 kts | 263° |
| 2026-04-21 15:17 | 51.66366 | 0.38690 | 9945 ft | 305 kts | 263° |
| 2026-04-21 15:17 | 51.66115 | 0.35302 | 9582 ft | 305 kts | 263° |
| 2026-04-21 15:17 | 51.65862 | 0.31902 | 9173 ft | 305 kts | 263° |
| 2026-04-21 15:18 | 51.65609 | 0.28518 | 8787 ft | 305 kts | 263° |
| 2026-04-21 15:18 | 51.65357 | 0.25150 | 8571 ft | 298 kts | 263° |
| 2026-04-21 15:18 | 51.65111 | 0.21888 | 8455 ft | 289 kts | 263° |
| 2026-04-21 15:18 | 51.64872 | 0.18730 | 8354 ft | 280 kts | 263° |
| 2026-04-21 15:19 | 51.64640 | 0.15668 | 8241 ft | 273 kts | 263° |
| 2026-04-21 15:19 | 51.64434 | 0.12660 | 8003 ft | 268 kts | 265° |
| 2026-04-21 15:19 | 51.64276 | 0.09687 | 7526 ft | 263 kts | 266° |
| 2026-04-21 15:19 | 51.64126 | 0.06767 | 7009 ft | 260 kts | 266° |
| 2026-04-21 15:20 | 51.63973 | 0.03862 | 6978 ft | 260 kts | 266° |
| 2026-04-21 15:20 | 51.63816 | 0.00966 | 6972 ft | 262 kts | 266° |
| 2026-04-21 15:20 | 51.63656 | -0.01967 | 7050 ft | 263 kts | 265° |
| 2026-04-21 15:20 | 51.63495 | -0.04861 | 7054 ft | 254 kts | 265° |
| 2026-04-21 15:21 | 51.63332 | -0.07758 | 7057 ft | 260 kts | 265° |
| 2026-04-21 15:21 | 51.63168 | -0.10671 | 7073 ft | 263 kts | 265° |
| 2026-04-21 15:21 | 51.63004 | -0.13544 | 7091 ft | 261 kts | 265° |
| 2026-04-21 15:21 | 51.62852 | -0.16216 | 7099 ft | 262 kts | 265° |
| 2026-04-21 15:22 | 51.62693 | -0.18996 | 7106 ft | 264 kts | 265° |
| 2026-04-21 15:22 | 51.62529 | -0.21828 | 7088 ft | 258 kts | 265° |
| 2026-04-21 15:22 | 51.62375 | -0.24492 | 7106 ft | 261 kts | 265° |
| 2026-04-21 15:22 | 51.62218 | -0.27211 | 7108 ft | 259 kts | 265° |
| 2026-04-21 15:23 | 51.62049 | -0.30123 | 7092 ft | 262 kts | 265° |
| 2026-04-21 15:23 | 51.61881 | -0.32991 | 6957 ft | 256 kts | 265° |
| 2026-04-21 15:23 | 51.61711 | -0.35876 | 6959 ft | 261 kts | 265° |
| 2026-04-21 15:23 | 51.61539 | -0.38800 | 6963 ft | 262 kts | 265° |
| 2026-04-21 15:24 | 51.61368 | -0.41687 | 6972 ft | 260 kts | 265° |
| 2026-04-21 15:24 | 51.61195 | -0.44603 | 6971 ft | 264 kts | 265° |
| 2026-04-21 15:24 | 51.61019 | -0.47539 | 6961 ft | 261 kts | 265° |
| 2026-04-21 15:24 | 51.60846 | -0.50425 | 6975 ft | 260 kts | 265° |
| 2026-04-21 15:25 | 51.60670 | -0.53343 | 6973 ft | 263 kts | 265° |
| 2026-04-21 15:25 | 51.60495 | -0.56232 | 6971 ft | 256 kts | 265° |
| 2026-04-21 15:25 | 51.60320 | -0.59120 | 6975 ft | 261 kts | 265° |
| 2026-04-21 15:25 | 51.60145 | -0.61997 | 6965 ft | 262 kts | 265° |
| 2026-04-21 15:26 | 51.59967 | -0.64918 | 6974 ft | 257 kts | 265° |
| 2026-04-21 15:26 | 51.59791 | -0.67793 | 6906 ft | 262 kts | 265° |
| 2026-04-21 15:26 | 51.59611 | -0.70707 | 6766 ft | 261 kts | 264° |
| 2026-04-21 15:26 | 51.59202 | -0.73538 | 6518 ft | 258 kts | 243° |
| 2026-04-21 15:27 | 51.58095 | -0.75685 | 6405 ft | 244 kts | 210° |
| 2026-04-21 15:27 | 51.56601 | -0.76772 | 6357 ft | 230 kts | 193° |
| 2026-04-21 15:27 | 51.55099 | -0.77520 | 6272 ft | 221 kts | 191° |
| 2026-04-21 15:27 | 51.53655 | -0.78212 | 6016 ft | 214 kts | 190° |
| 2026-04-21 15:28 | 51.52220 | -0.78700 | 5384 ft | 213 kts | 178° |
| 2026-04-21 15:28 | 51.50737 | -0.78457 | 4377 ft | 220 kts | 156° |
| 2026-04-21 15:28 | 51.49373 | -0.77307 | 3355 ft | 227 kts | 139° |
| 2026-04-21 15:28 | 51.48282 | -0.75643 | 2778 ft | 204 kts | 115° |
| 2026-04-21 15:29 | 51.47788 | -0.73625 | 2533 ft | 184 kts | 100° |
| 2026-04-21 15:29 | 51.47687 | -0.71712 | 2503 ft | 163 kts | 87° |
| 2026-04-21 15:29 | 51.47692 | -0.69898 | 2501 ft | 161 kts | 88° |
| 2026-04-21 15:29 | 51.47692 | -0.68105 | 2487 ft | 161 kts | 88° |
| 2026-04-21 15:30 | 51.47693 | -0.66326 | 2331 ft | 158 kts | 88° |
| 2026-04-21 15:30 | 51.47690 | -0.64655 | 2126 ft | 145 kts | 88° |
| 2026-04-21 15:30 | 51.47695 | -0.63082 | 1931 ft | 140 kts | 88° |
| 2026-04-21 15:30 | 51.47702 | -0.61529 | 1741 ft | 138 kts | 88° |
| 2026-04-21 15:31 | 51.47707 | -0.60004 | 1556 ft | 137 kts | 88° |
| 2026-04-21 15:31 | 51.47712 | -0.58468 | 1367 ft | 138 kts | 87° |
| 2026-04-21 15:31 | 51.47718 | -0.56976 | 1175 ft | 127 kts | 87° |
| 2026-04-21 15:31 | 51.47721 | -0.55634 | 1009 ft | 113 kts | 87° |
| 2026-04-21 15:32 | 51.47725 | -0.54431 | 845 ft | 105 kts | 86° |
| 2026-04-21 15:32 | 51.47731 | -0.53259 | 741 ft | 104 kts | 87° |
| 2026-04-21 15:32 | 51.47743 | -0.52073 | 597 ft | 109 kts | 87° |
| 2026-04-21 15:32 | 51.47746 | -0.50872 | 405 ft | 106 kts | 90° |
| 2026-04-21 15:33 | 51.47747 | -0.49706 | 275 ft | 105 kts | 90° |
| 2026-04-21 15:33 | 51.47751 | -0.48562 | 137 ft | 103 kts | 91° |
| 2026-04-21 15:33 | 51.47754 | -0.47498 | 89 ft | 76 kts | 90° |
| 2026-04-21 15:33 | 51.47756 | -0.46916 | 96 ft | 40 kts | 90° |
| 2026-04-21 15:34 | 51.47758 | -0.46477 | 96 ft | 40 kts | 89° |
| 2026-04-21 15:34 | 51.47754 | -0.46209 | 94 ft | 11 kts | 111° |
| 2026-04-21 15:34 | 51.47709 | -0.46151 | 95 ft | 10 kts | 144° |
| 2026-04-21 15:34 | 51.47660 | -0.46096 | 95 ft | 0 kts | 145° |
| 2026-04-21 15:35 | 51.47653 | -0.46088 | 94 ft | 0 kts | 145° |
| 2026-04-21 15:35 | 51.47645 | -0.46079 | 94 ft | 3 kts | 145° |
| 2026-04-21 15:35 | 51.47620 | -0.46050 | 94 ft | 6 kts | 141° |
| 2026-04-21 15:35 | 51.47600 | -0.45986 | 94 ft | 7 kts | 99° |
| 2026-04-21 15:36 | 51.47594 | -0.45895 | 94 ft | 9 kts | 95° |
| 2026-04-21 15:36 | 51.47595 | -0.45851 | 94 ft | 0 kts | 89° |